createdAt,value
2022-08-22T00:02:56.787Z,7.20
2022-08-22T00:02:59.525Z,6.60
2022-08-22T00:13:39.622Z,6.60
2022-08-22T00:16:17.532Z,6.80
2022-08-22T00:18:55.484Z,6.70
2022-08-22T00:21:33.036Z,6.80
2022-08-22T00:24:23.540Z,6.80
2022-08-22T00:27:03.877Z,6.80
2022-08-22T00:29:43.450Z,6.90
2022-08-22T00:32:41.263Z,6.50
2022-08-22T00:35:20.074Z,6.50
2022-08-22T00:38:54.299Z,6.80
2022-08-22T00:42:29.562Z,6.20
2022-08-22T00:45:26.601Z,7.60
2022-08-22T00:48:09.875Z,7.30
2022-08-22T00:51:10.361Z,7.40
2022-08-22T00:54:17.490Z,7.80
2022-08-22T00:57:03.413Z,6.90
2022-08-22T01:00:08.893Z,6.40
2022-08-22T01:02:59.518Z,7.00
2022-08-22T01:05:47.841Z,6.70
2022-08-22T01:08:32.493Z,5.90
2022-08-22T01:11:23.458Z,6.40
2022-08-22T01:14:08.494Z,6.00
2022-08-22T01:17:09.266Z,6.20
2022-08-22T01:20:38.283Z,6.30
2022-08-22T01:23:37.736Z,6.30
2022-08-22T01:26:57.444Z,5.90
2022-08-22T01:30:08.843Z,6.50
2022-08-22T01:33:16.238Z,6.40
2022-08-22T01:36:04.795Z,5.80
2022-08-22T01:38:53.233Z,6.00
2022-08-22T01:42:02.832Z,6.10
2022-08-22T01:45:04.542Z,5.90
2022-08-22T01:47:49.735Z,6.20
2022-08-22T01:50:44.097Z,5.80
2022-08-22T01:53:25.946Z,6.30
2022-08-22T01:56:06.416Z,5.90
2022-08-22T01:58:47.234Z,6.40
2022-08-22T02:01:28.279Z,6.30
2022-08-22T02:04:21.567Z,5.60
2022-08-22T02:07:07.574Z,6.10
2022-08-22T02:13:25.670Z,5.70
2022-08-22T02:14:22.727Z,6.10
2022-08-22T02:18:23.348Z,5.90
2022-08-22T02:21:24.079Z,5.60
2022-08-22T02:24:01.641Z,5.50
2022-08-22T02:26:45.930Z,5.60
2022-08-22T02:29:23.051Z,5.80
2022-08-22T02:32:04.929Z,5.80
2022-08-22T02:34:49.498Z,5.80
2022-08-22T02:37:35.157Z,5.10
2022-08-22T02:40:19.613Z,5.30
2022-08-22T02:43:04.128Z,5.70
2022-08-22T02:45:41.960Z,6.10
2022-08-22T02:48:32.163Z,5.30
2022-08-22T02:51:11.855Z,5.10
2022-08-22T02:53:55.776Z,5.70
2022-08-22T02:56:34.498Z,4.80
2022-08-22T02:59:22.871Z,5.20
2022-08-22T03:01:53.603Z,5.20
2022-08-22T03:04:54.277Z,6.10
2022-08-22T03:07:44.813Z,4.80
2022-08-22T03:10:25.655Z,5.30
2022-08-22T03:13:21.718Z,5.60
2022-08-22T03:16:04.732Z,6.10
2022-08-22T03:18:53.536Z,6.00
2022-08-22T03:21:34.046Z,5.90
2022-08-22T03:24:20.476Z,5.30
2022-08-22T03:27:02.533Z,5.50
2022-08-22T03:29:38.114Z,5.80
2022-08-22T03:32:14.991Z,5.50
2022-08-22T03:35:03.406Z,5.40
2022-08-22T03:37:45.017Z,5.80
2022-08-22T03:40:33.184Z,5.30
2022-08-22T03:44:04.751Z,5.50
2022-08-22T03:47:17.739Z,5.30
2022-08-22T03:50:30.654Z,5.60
2022-08-22T03:53:37.136Z,5.30
2022-08-22T03:57:08.485Z,5.60
2022-08-22T04:00:06.309Z,6.10
2022-08-22T04:03:25.284Z,5.70
2022-08-22T04:06:34.942Z,6.50
2022-08-22T04:09:29.301Z,6.30
2022-08-22T04:12:23.042Z,5.60
2022-08-22T04:15:42.197Z,6.20
2022-08-22T04:18:41.917Z,5.90
2022-08-22T04:21:27.181Z,5.90
2022-08-22T04:24:21.992Z,6.00
2022-08-22T04:27:19.213Z,6.20
2022-08-22T04:31:41.096Z,6.60
2022-08-22T04:34:11.822Z,6.40
2022-08-22T04:36:52.547Z,6.20
2022-08-22T04:39:30.017Z,6.40
2022-08-22T04:42:31.075Z,6.90
2022-08-22T04:45:11.684Z,6.70
2022-08-22T04:47:54.183Z,6.00
2022-08-22T04:50:30.244Z,6.80
2022-08-22T04:53:26.408Z,6.60
2022-08-22T04:56:13.344Z,7.00
2022-08-22T04:58:51.045Z,6.20
2022-08-22T05:01:25.152Z,6.30
2022-08-22T05:04:00.509Z,6.50
2022-08-22T05:06:33.696Z,6.70
2022-08-22T05:09:14.169Z,6.70
2022-08-22T05:11:52.055Z,7.10
2022-08-22T05:14:27.939Z,6.80
2022-08-22T05:16:59.462Z,7.00
2022-08-22T05:19:34.643Z,7.00
2022-08-22T05:22:06.506Z,6.70
2022-08-22T05:24:50.414Z,7.20
2022-08-22T05:27:24.522Z,6.60
2022-08-22T05:30:01.878Z,7.00
2022-08-22T05:32:40.959Z,7.00
2022-08-22T05:35:19.456Z,6.70
2022-08-22T05:37:55.944Z,7.50
2022-08-22T05:40:37.873Z,7.10
2022-08-22T05:43:12.583Z,7.50
2022-08-22T05:45:47.181Z,5.60
2022-08-22T05:48:20.320Z,5.70
2022-08-22T05:50:56.744Z,5.70
2022-08-22T05:53:37.819Z,5.70
2022-08-22T05:56:13.058Z,6.40
2022-08-22T05:58:59.580Z,6.20
2022-08-22T06:02:13.228Z,8.40
2022-08-22T06:05:05.011Z,6.70
2022-08-22T06:07:43.411Z,8.60
2022-08-22T06:10:24.126Z,9.40
2022-08-22T06:13:01.409Z,9.50
2022-08-22T06:15:39.546Z,9.20
2022-08-22T06:18:14.481Z,9.10
2022-08-22T06:20:47.939Z,10.00
2022-08-22T06:23:26.420Z,9.80
2022-08-22T06:26:00.071Z,10.60
2022-08-22T06:28:54.734Z,10.00
2022-08-22T06:31:35.184Z,10.10
2022-08-22T06:34:11.685Z,10.50
2022-08-22T06:36:46.002Z,9.90
2022-08-22T06:39:22.507Z,9.10
2022-08-22T06:41:57.907Z,10.30
2022-08-22T06:44:31.598Z,9.80
2022-08-22T06:47:08.082Z,8.30
2022-08-22T06:49:42.996Z,6.90
2022-08-22T06:52:21.394Z,7.30
2022-08-22T06:54:59.808Z,10.40
2022-08-22T06:57:38.055Z,8.30
2022-08-22T07:00:13.027Z,9.70
2022-08-22T07:02:57.963Z,7.80
2022-08-22T07:05:43.024Z,7.70
2022-08-22T07:08:38.878Z,7.40
2022-08-22T07:11:42.501Z,8.60
2022-08-22T07:14:20.183Z,7.90
2022-08-22T07:17:11.731Z,10.10
2022-08-22T07:20:10.946Z,10.20
2022-08-22T07:22:54.338Z,10.40
2022-08-22T07:25:30.416Z,10.30
2022-08-22T07:28:36.943Z,10.30
2022-08-22T07:31:37.515Z,9.50
2022-08-22T07:34:37.334Z,10.30
2022-08-22T07:37:18.120Z,10.40
2022-08-22T07:39:56.675Z,10.10
2022-08-22T07:42:40.767Z,11.10
2022-08-22T07:45:15.882Z,10.80
2022-08-22T07:48:05.095Z,10.80
2022-08-22T07:51:02.333Z,11.50
2022-08-22T07:53:42.203Z,11.50
2022-08-22T07:56:19.328Z,11.20
2022-08-22T07:58:56.298Z,12.10
2022-08-22T08:01:28.876Z,12.40
2022-08-22T08:04:02.497Z,11.80
2022-08-22T08:06:33.690Z,12.70
2022-08-22T08:09:04.808Z,13.40
2022-08-22T08:11:41.254Z,12.90
2022-08-22T08:14:14.853Z,13.60
2022-08-22T08:17:02.375Z,14.10
2022-08-22T08:19:35.311Z,14.20
2022-08-22T08:22:07.152Z,12.70
2022-08-22T08:24:43.432Z,9.60
2022-08-22T08:27:41.450Z,13.50
2022-08-22T08:30:22.429Z,10.80
2022-08-22T08:33:24.780Z,13.20
2022-08-22T08:36:02.032Z,12.10
2022-08-22T08:38:43.647Z,12.80
2022-08-22T08:41:34.531Z,13.30
2022-08-22T08:44:22.330Z,13.50
2022-08-22T08:47:18.084Z,11.60
2022-08-22T08:50:12.430Z,11.80
2022-08-22T08:53:13.646Z,10.60
2022-08-22T08:56:23.181Z,14.40
2022-08-22T08:59:03.944Z,14.60
2022-08-22T09:02:13.664Z,10.90
2022-08-22T09:05:19.625Z,9.70
2022-08-22T09:08:11.887Z,13.60
2022-08-22T09:11:17.498Z,13.50
2022-08-22T09:14:15.978Z,13.90
2022-08-22T09:17:01.405Z,14.00
2022-08-22T09:20:02.559Z,12.20
2022-08-22T09:23:38.960Z,13.70
2022-08-22T09:26:30.851Z,12.70
2022-08-22T09:29:21.644Z,15.70
2022-08-22T09:32:03.952Z,11.20
2022-08-22T09:34:41.269Z,12.50
2022-08-22T09:37:21.195Z,11.60
2022-08-22T09:40:09.283Z,12.90
2022-08-22T09:42:55.716Z,12.10
2022-08-22T09:45:50.100Z,9.80
2022-08-22T09:48:38.597Z,11.20
2022-08-22T09:51:32.726Z,11.70
2022-08-22T09:54:31.475Z,11.50
2022-08-22T09:57:28.989Z,13.00
2022-08-22T10:00:31.676Z,9.10
2022-08-22T10:03:16.009Z,10.00
2022-08-22T10:05:58.679Z,9.50
2022-08-22T10:09:32.015Z,9.20
2022-08-22T10:12:12.796Z,8.90
2022-08-22T10:15:01.887Z,9.70
2022-08-22T10:17:47.495Z,11.50
2022-08-22T10:20:25.815Z,11.50
2022-08-22T10:23:11.399Z,10.30
2022-08-22T10:25:49.380Z,10.40
2022-08-22T10:28:39.347Z,10.30
2022-08-22T10:31:24.253Z,10.60
2022-08-22T10:34:09.884Z,11.30
2022-08-22T10:37:01.452Z,11.10
2022-08-22T10:39:43.997Z,11.30
2022-08-22T10:42:35.797Z,10.70
2022-08-22T10:48:29.197Z,10.30
2022-08-22T10:51:15.943Z,9.90
2022-08-22T10:54:54.059Z,10.60
2022-08-22T10:57:56.963Z,10.40
2022-08-22T11:00:56.246Z,9.70
2022-08-22T11:07:05.207Z,7.40
2022-08-22T11:14:31.989Z,7.30
2022-08-22T11:17:31.017Z,7.90
2022-08-22T11:20:22.336Z,8.30
2022-08-22T11:23:12.822Z,7.60
2022-08-22T11:26:05.098Z,8.20
2022-08-22T11:29:22.819Z,8.80
2022-08-22T11:32:57.485Z,8.50
2022-08-22T11:36:00.318Z,8.70
2022-08-22T11:39:37.414Z,9.30
2022-08-22T11:42:21.678Z,9.00
2022-08-22T11:45:06.866Z,9.40
2022-08-22T11:47:48.338Z,8.80
2022-08-22T11:50:58.349Z,9.10
2022-08-22T11:54:31.103Z,9.40
2022-08-22T12:02:19.386Z,9.70
2022-08-22T12:04:44.068Z,9.00
2022-08-22T12:10:43.938Z,8.80
2022-08-22T12:13:35.220Z,8.60
2022-08-22T12:16:21.256Z,8.90
2022-08-22T12:19:01.558Z,9.40
2022-08-22T12:22:07.374Z,8.80
2022-08-22T12:25:02.929Z,9.00
2022-08-22T12:47:09.256Z,8.70
2022-08-22T12:50:10.431Z,8.00
2022-08-22T12:54:05.283Z,8.70
2022-08-22T12:58:34.021Z,7.50
2022-08-22T13:08:05.908Z,7.90
2022-08-22T13:15:43.496Z,7.40
2022-08-22T13:18:33.953Z,7.10
2022-08-22T13:21:56.461Z,7.20
2022-08-22T13:29:42.987Z,7.10
2022-08-22T13:58:31.893Z,5.50
2022-08-22T14:01:43.287Z,5.50
2022-08-22T14:04:32.034Z,5.40
2022-08-22T14:07:28.654Z,5.90
2022-08-22T14:10:02.732Z,5.90
2022-08-22T14:12:50.219Z,6.70
2022-08-22T14:15:25.092Z,6.50
2022-08-22T14:18:03.513Z,6.20
2022-08-22T14:20:37.881Z,6.30
2022-08-22T14:23:14.276Z,5.70
2022-08-22T14:25:45.034Z,5.70
2022-08-22T14:28:27.506Z,5.80
2022-08-22T14:31:05.914Z,5.60
2022-08-22T14:33:56.495Z,6.40
2022-08-22T14:36:45.556Z,6.60
2022-08-22T14:39:28.839Z,6.30
2022-08-22T14:42:10.850Z,6.50
2022-08-22T14:45:01.891Z,6.00
2022-08-22T14:48:14.562Z,6.00
2022-08-22T14:50:53.075Z,6.30
2022-08-22T14:53:33.722Z,6.30
2022-08-22T14:56:09.554Z,6.30
2022-08-22T15:01:23.172Z,6.20
2022-08-22T15:04:01.850Z,5.90
2022-08-22T15:06:35.520Z,6.50
2022-08-22T15:09:08.456Z,6.20
2022-08-22T15:11:42.338Z,6.00
2022-08-22T15:14:22.546Z,6.40
2022-08-22T15:16:58.322Z,6.40
2022-08-22T15:19:42.052Z,7.00
2022-08-22T15:22:19.717Z,6.90
2022-08-22T15:24:57.635Z,6.50
2022-08-22T15:27:30.782Z,6.50
2022-08-22T15:30:03.360Z,6.00
2022-08-22T15:32:41.742Z,7.20
2022-08-22T15:35:15.615Z,6.90
2022-08-22T15:38:03.980Z,6.50
2022-08-22T15:40:40.584Z,6.90
2022-08-22T15:43:21.842Z,6.70
2022-08-22T15:46:09.929Z,7.00
2022-08-22T15:49:00.005Z,6.70
2022-08-22T15:51:41.138Z,7.20
2022-08-22T15:54:24.819Z,7.20
2022-08-22T15:57:22.800Z,7.10
2022-08-22T15:59:56.535Z,7.10
2022-08-22T16:02:33.299Z,7.00
2022-08-22T16:05:25.165Z,7.10
2022-08-22T16:08:09.820Z,6.80
2022-08-22T16:10:49.269Z,7.00
2022-08-22T16:13:49.010Z,6.70
2022-08-22T16:17:01.208Z,7.20
2022-08-22T16:19:34.012Z,6.70
2022-08-22T16:22:13.134Z,7.50
2022-08-22T16:25:13.848Z,7.20
2022-08-22T16:27:59.341Z,6.50
2022-08-22T16:30:36.777Z,5.90
2022-08-22T16:33:12.191Z,5.80
2022-08-22T16:36:23.898Z,5.10
2022-08-22T16:38:57.183Z,5.40
2022-08-22T16:41:39.784Z,4.30
2022-08-22T16:44:41.018Z,4.00
2022-08-22T16:47:14.966Z,4.10
2022-08-22T16:50:01.024Z,3.60
2022-08-22T16:52:55.543Z,3.50
2022-08-22T16:56:10.887Z,3.50
2022-08-22T16:59:09.680Z,3.50
2022-08-22T17:02:11.945Z,3.30
2022-08-22T17:04:56.406Z,3.80
2022-08-22T17:07:40.309Z,3.40
2022-08-22T17:10:38.678Z,4.10
2022-08-22T17:13:33.877Z,3.70
2022-08-22T17:16:28.285Z,3.10
2022-08-22T17:19:24.084Z,3.40
2022-08-22T17:21:57.590Z,3.20
2022-08-22T17:24:38.574Z,3.50
2022-08-22T17:27:24.823Z,3.20
2022-08-22T17:30:20.942Z,3.40
2022-08-22T17:36:55.143Z,3.70
2022-08-22T17:39:41.916Z,3.40
2022-08-22T17:42:35.203Z,3.80
2022-08-22T17:45:16.329Z,4.10
2022-08-22T17:47:52.062Z,4.10
2022-08-22T17:50:31.951Z,4.20
2022-08-22T17:53:12.254Z,3.80
2022-08-22T17:56:00.907Z,3.80
2022-08-22T17:58:43.825Z,4.00
2022-08-22T18:01:20.279Z,3.50
2022-08-22T18:04:01.306Z,3.70
2022-08-22T18:06:36.871Z,3.50
2022-08-22T18:09:25.912Z,3.60
2022-08-22T18:12:04.294Z,3.30
2022-08-22T18:14:41.308Z,3.50
2022-08-22T18:17:22.684Z,3.10
2022-08-22T18:19:59.058Z,3.80
2022-08-22T18:22:36.675Z,4.50
2022-08-22T18:28:27.187Z,3.40
2022-08-22T18:31:05.084Z,3.50
2022-08-22T18:35:28.925Z,3.40
2022-08-22T18:37:16.831Z,3.40
2022-08-22T18:40:06.141Z,3.70
2022-08-22T18:43:24.168Z,3.40
2022-08-22T18:46:29.672Z,3.50
2022-08-22T18:49:15.021Z,3.50
2022-08-22T18:52:21.498Z,3.40
2022-08-22T18:55:35.285Z,3.80
2022-08-22T19:02:21.501Z,3.10
2022-08-22T19:02:34.538Z,3.30
2022-08-22T19:05:34.814Z,3.30
2022-08-22T19:08:53.500Z,3.90
2022-08-22T19:11:46.582Z,3.60
2022-08-22T19:14:40.457Z,3.70
2022-08-22T19:17:37.098Z,3.70
2022-08-22T19:20:37.169Z,3.40
2022-08-22T19:23:45.561Z,3.40
2022-08-22T19:26:37.702Z,3.50
2022-08-22T19:29:45.706Z,3.90
2022-08-22T19:32:55.347Z,3.60
2022-08-22T19:35:29.456Z,3.80
2022-08-22T19:38:07.392Z,3.50
2022-08-22T19:40:58.616Z,3.70
2022-08-22T19:43:48.883Z,5.60
2022-08-22T19:46:37.276Z,3.70
2022-08-22T19:49:24.691Z,3.90
2022-08-22T19:52:17.831Z,4.60
2022-08-22T19:55:11.675Z,4.10
2022-08-22T19:58:03.930Z,3.50
2022-08-22T20:00:53.679Z,4.50
2022-08-22T20:03:43.201Z,3.70
2022-08-22T20:06:55.706Z,3.90
2022-08-22T20:10:42.565Z,3.80
2022-08-22T20:14:16.257Z,3.60
2022-08-22T20:17:16.305Z,3.40
2022-08-22T20:22:04.209Z,3.70
2022-08-22T20:23:30.612Z,3.60
2022-08-22T20:26:08.435Z,4.00
2022-08-22T20:28:45.228Z,3.90
2022-08-22T21:19:02.476Z,3.90
2022-08-22T21:25:34.730Z,3.90
2022-08-22T21:41:25.479Z,3.50
2022-08-22T21:42:38.240Z,3.90
2022-08-22T21:57:29.614Z,4.10
2022-08-22T22:00:48.853Z,4.20
2022-08-22T22:16:47.226Z,3.30
2022-08-22T22:19:21.430Z,4.30
2022-08-22T22:25:40.609Z,4.00
2022-08-22T22:35:46.549Z,3.90
2022-08-22T22:38:03.111Z,3.90
2022-08-22T22:40:56.760Z,4.60
2022-08-22T22:43:38.763Z,4.80
2022-08-22T22:46:13.379Z,4.40
2022-08-22T22:48:43.345Z,4.10
2022-08-22T22:51:16.174Z,4.40
2022-08-22T22:53:46.654Z,4.20
2022-08-22T22:56:39.555Z,4.50
2022-08-22T22:59:13.515Z,3.90
2022-08-22T23:02:03.508Z,4.00
2022-08-22T23:04:37.598Z,3.90
2022-08-22T23:07:11.719Z,3.60
2022-08-22T23:09:45.735Z,4.10
2022-08-22T23:12:17.463Z,3.70
2022-08-22T23:21:17.145Z,3.50
2022-08-22T23:30:40.109Z,3.60
